Time;durP1;ratioP1;P1;durP2;ratioP2;P2;SDS_P1;SDS_P2;PMS_P1;PMS_P2;Temp;Humidity;BMP_temperature;BMP_pressure;BME280_temperature;BME280_humidity;BME280_pressure;Samples;Min_cycle;Max_cycle;Signal;HPM_P1;HPM_P2
2023/09/05 00:01:49;;;;;;;;;;;;;;;;;;4995446;28;19913;-87
2023/09/05 00:04:21;;;;;;;;;;;;;;;;;;5008751;28;19914;-88
2023/09/05 00:06:47;;;;;;;;;;;;;;;;;;4969339;28;20390;-88
2023/09/05 00:09:19;;;;;;;;;;;;;;;;;;4988038;28;20021;-87
2023/09/05 00:11:45;;;;;;;;;;;;;;;;;;4977447;28;20324;-88
2023/09/05 00:14:11;;;;;;;;;;;;;;;;;;4974867;28;19924;-88
2023/09/05 00:16:37;;;;;;;;;;;;;;;;;;4980618;28;19984;-88
2023/09/05 00:19:03;;;;;;;;;;;;;;;;;;4978582;28;20601;-88
2023/09/05 00:21:29;;;;;;;;;;;;;;;;;;4988927;28;19917;-88
2023/09/05 00:23:55;;;;;;;;;;;;;;;;;;4989146;28;19940;-88
2023/09/05 00:26:21;;;;;;;;;;;;;;;;;;4974246;28;19917;-88
2023/09/05 00:28:50;;;;;;;;;;;;;;;;;;4990146;28;19918;-89
2023/09/05 00:31:16;;;;;;;;;;;;;;;;;;4975989;28;20012;-88
2023/09/05 00:33:42;;;;;;;;;;;;;;;;;;4976869;28;20414;-88
2023/09/05 00:36:08;;;;;;;;;;;;;;;;;;4976694;28;19925;-88
2023/09/05 00:38:34;;;;;;;;;;;;;;;;;;4974921;28;20378;-89
2023/09/05 00:41:02;;;;;;;;;;;;;;;;;;4979270;28;19955;-88
2023/09/05 00:43:27;;;;;;;;;;;;;;;;;;4971908;28;20369;-88
2023/09/05 00:45:56;;;;;;;;;;;;;;;;;;4975428;28;19920;-90
2023/09/05 00:48:27;;;;;;;;;;;;;;;;;;4976440;28;20107;-88
2023/09/05 00:50:55;;;;;;;;;;;;;;;;;;4971580;28;19910;-88
2023/09/05 00:53:21;;;;;;;;;;;;;;;;;;4974084;28;20456;-88
2023/09/05 00:55:47;;;;;;;;;;;;;;;;;;4971091;28;19955;-87
2023/09/05 00:58:13;;;;;;;;;;;;;;;;;;4966964;28;19961;-87
2023/09/05 01:00:39;;;;;;;;;;;;;;;;;;4977068;28;20658;-90
2023/09/05 01:03:06;;;;;;;;;;;;;;;;;;4971548;28;20305;-89
2023/09/05 01:05:32;;;;;;;;;;;;;;;;;;4977851;28;21462;-88
2023/09/05 01:07:59;;;;;;;;;;;;;;;;;;4978308;28;19990;-87
2023/09/05 01:10:27;;;;;;;;;;;;;;;;;;4979445;28;19940;-88
2023/09/05 01:12:53;;;;;;;;;;;;;;;;;;4976135;28;19941;-87
2023/09/05 01:15:19;;;;;;;;;;;;;;;;;;4974980;28;19921;-88
2023/09/05 01:17:45;;;;;;;;;;;;;;;;;;4992659;28;19921;-88
2023/09/05 01:20:11;;;;;;;;;;;;;;;;;;4973832;28;19957;-87
2023/09/05 01:22:37;;;;;;;;;;;;;;;;;;4989575;28;19996;-87
2023/09/05 01:25:03;;;;;;;;;;;;;;;;;;4973633;28;20313;-87
2023/09/05 01:27:29;;;;;;;;;;;;;;;;;;4975565;28;19918;-88
2023/09/05 01:29:55;;;;;;;;;;;;;;;;;;4973641;28;19917;-88
2023/09/05 01:32:21;;;;;;;;;;;;;;;;;;4969660;28;19964;-88
2023/09/05 01:34:47;;;;;;;;;;;;;;;;;;4975317;28;19910;-88
2023/09/05 01:37:14;;;;;;;;;;;;;;;;;;4975482;28;20004;-89
2023/09/05 01:39:40;;;;;;;;;;;;;;;;;;4967604;28;19921;-89
2023/09/05 01:42:06;;;;;;;;;;;;;;;;;;4977665;28;19929;-89
2023/09/05 01:44:34;;;;;;;;;;;;;;;;;;4970919;28;20000;-89
2023/09/05 01:47:00;;;;;;;;;;;;;;;;;;4975559;28;19914;-89
2023/09/05 01:49:26;;;;;;;;;;;;;;;;;;4969989;28;19918;-89
2023/09/05 01:51:52;;;;;;;;;;;;;;;;;;4974068;28;19917;-89
2023/09/05 01:54:18;;;;;;;;;;;;;;;;;;4971281;28;19937;-89
2023/09/05 01:56:44;;;;;;;;;;;;;;;;;;4980517;28;19914;-89
2023/09/05 01:59:10;;;;;;;;;;;;;;;;;;4976629;28;19925;-89
2023/09/05 02:01:36;;;;;;;;;;;;;;;;;;4969362;28;20059;-88
2023/09/05 02:04:02;;;;;;;;;;;;;;;;;;4970931;28;20062;-89
2023/09/05 02:06:27;;;;;;;;;;;;;;;;;;4970412;28;20388;-88
2023/09/05 02:08:54;;;;;;;;;;;;;;;;;;4975179;28;19917;-89
2023/09/05 02:11:20;;;;;;;;;;;;;;;;;;4966404;28;19950;-89
2023/09/05 02:13:46;;;;;;;;;;;;;;;;;;4968217;28;20028;-89
2023/09/05 02:16:18;;;;;;;;;;;;;;;;;;4972708;28;19918;-89
2023/09/05 02:18:44;;;;;;;;;;;;;;;;;;4963476;28;19918;-89
2023/09/05 02:21:10;;;;;;;;;;;;;;;;;;4973641;28;19921;-88
2023/09/05 02:23:36;;;;;;;;;;;;;;;;;;4964436;28;19946;-89
2023/09/05 02:26:02;;;;;;;;;;;;;;;;;;4968427;28;19925;-89
2023/09/05 02:28:28;;;;;;;;;;;;;;;;;;4965305;28;20451;-89
2023/09/05 02:31:03;;;;;;;;;;;;;;;;;;4972565;28;19918;-89
2023/09/05 02:33:29;;;;;;;;;;;;;;;;;;4975246;28;19956;-89
2023/09/05 02:35:55;;;;;;;;;;;;;;;;;;4974943;28;20041;-89
2023/09/05 02:38:21;;;;;;;;;;;;;;;;;;4988243;28;19930;-89
2023/09/05 02:40:47;;;;;;;;;;;;;;;;;;4978615;28;19925;-89
2023/09/05 02:43:13;;;;;;;;;;;;;;;;;;4971507;28;19917;-89
2023/09/05 02:45:42;;;;;;;;;;;;;;;;;;4970348;28;19960;-89
2023/09/05 02:48:08;;;;;;;;;;;;;;;;;;4975390;28;19921;-89
2023/09/05 02:50:34;;;;;;;;;;;;;;;;;;4962786;28;20029;-89
2023/09/05 02:53:00;;;;;;;;;;;;;;;;;;4965967;28;20357;-89
2023/09/05 02:55:26;;;;;;;;;;;;;;;;;;4973963;28;19918;-88
2023/09/05 02:57:52;;;;;;;;;;;;;;;;;;4976096;28;19918;-87
2023/09/05 03:00:19;;;;;;;;;;;;;;;;;;4971696;28;20361;-88
2023/09/05 03:02:45;;;;;;;;;;;;;;;;;;4975929;28;19929;-88
2023/09/05 03:05:13;;;;;;;;;;;;;;;;;;4972030;28;20016;-88
2023/09/05 03:07:45;;;;;;;;;;;;;;;;;;4979414;28;19936;-88
2023/09/05 03:10:10;;;;;;;;;;;;;;;;;;4970683;28;19922;-88
2023/09/05 03:12:36;;;;;;;;;;;;;;;;;;4968589;28;20341;-88
2023/09/05 03:15:02;;;;;;;;;;;;;;;;;;4972732;28;19977;-89
2023/09/05 03:17:28;;;;;;;;;;;;;;;;;;4975056;28;19973;-87
2023/09/05 03:19:54;;;;;;;;;;;;;;;;;;4972332;28;20401;-88
2023/09/05 03:22:20;;;;;;;;;;;;;;;;;;4971569;28;19918;-88
2023/09/05 03:24:46;;;;;;;;;;;;;;;;;;4975574;28;20589;-88
2023/09/05 03:27:15;;;;;;;;;;;;;;;;;;4970067;28;19914;-88
2023/09/05 03:29:42;;;;;;;;;;;;;;;;;;4970633;28;19922;-88
2023/09/05 03:32:08;;;;;;;;;;;;;;;;;;4974463;28;20068;-88
2023/09/05 03:34:34;;;;;;;;;;;;;;;;;;4972744;28;19981;-88
2023/09/05 03:37:00;;;;;;;;;;;;;;;;;;4977736;28;19922;-88
2023/09/05 03:39:26;;;;;;;;;;;;;;;;;;4974323;28;19918;-88
2023/09/05 03:41:52;;;;;;;;;;;;;;;;;;4977629;28;20277;-89
2023/09/05 03:44:18;;;;;;;;;;;;;;;;;;4978375;28;19929;-88
2023/09/05 03:46:44;;;;;;;;;;;;;;;;;;4978252;28;19914;-87
2023/09/05 03:49:10;;;;;;;;;;;;;;;;;;4980110;28;19913;-88
2023/09/05 03:51:36;;;;;;;;;;;;;;;;;;4974624;28;20032;-88
2023/09/05 03:54:02;;;;;;;;;;;;;;;;;;4971445;28;20401;-88
2023/09/05 03:56:28;;;;;;;;;;;;;;;;;;4968397;28;19972;-87
2023/09/05 03:58:54;;;;;;;;;;;;;;;;;;4986848;28;20361;-87
2023/09/05 04:01:20;;;;;;;;;;;;;;;;;;4993433;28;19913;-87
2023/09/05 04:03:46;;;;;;;;;;;;;;;;;;4974759;28;19914;-88
2023/09/05 04:06:12;;;;;;;;;;;;;;;;;;4968707;28;19954;-89
2023/09/05 04:08:38;;;;;;;;;;;;;;;;;;4971190;28;19926;-88
2023/09/05 04:11:04;;;;;;;;;;;;;;;;;;4973271;28;20008;-89
2023/09/05 04:13:30;;;;;;;;;;;;;;;;;;4992393;28;20024;-89
2023/09/05 04:15:56;;;;;;;;;;;;;;;;;;4992627;28;20017;-89
2023/09/05 04:18:22;;;;;;;;;;;;;;;;;;4976806;28;19972;-89
2023/09/05 04:20:48;;;;;;;;;;;;;;;;;;4971676;28;19940;-88
2023/09/05 04:23:14;;;;;;;;;;;;;;;;;;4981697;28;20259;-89
2023/09/05 04:25:40;;;;;;;;;;;;;;;;;;4973142;28;19922;-89
2023/09/05 04:28:06;;;;;;;;;;;;;;;;;;4971967;28;19914;-88
2023/09/05 04:30:32;;;;;;;;;;;;;;;;;;4970898;28;20381;-88
2023/09/05 04:32:58;;;;;;;;;;;;;;;;;;4974441;28;19922;-89
2023/09/05 04:35:24;;;;;;;;;;;;;;;;;;4969886;28;19925;-89
2023/09/05 04:37:52;;;;;;;;;;;;;;;;;;4973433;28;20000;-89
2023/09/05 04:40:18;;;;;;;;;;;;;;;;;;4973110;28;19924;-89
2023/09/05 04:42:44;;;;;;;;;;;;;;;;;;4975731;28;20009;-88
2023/09/05 04:45:10;;;;;;;;;;;;;;;;;;4973757;28;20043;-88
2023/09/05 04:47:38;;;;;;;;;;;;;;;;;;4970733;28;19942;-88
2023/09/05 04:50:04;;;;;;;;;;;;;;;;;;4974974;28;19917;-88
2023/09/05 04:52:30;;;;;;;;;;;;;;;;;;4970338;28;20465;-88
2023/09/05 04:54:55;;;;;;;;;;;;;;;;;;4964779;28;19918;-89
2023/09/05 04:57:21;;;;;;;;;;;;;;;;;;4989108;28;19921;-89
2023/09/05 04:59:47;;;;;;;;;;;;;;;;;;4966283;28;20636;-88
2023/09/05 05:02:14;;;;;;;;;;;;;;;;;;4976371;28;19914;-89
2023/09/05 05:04:40;;;;;;;;;;;;;;;;;;4977908;28;19918;-88
2023/09/05 05:07:06;;;;;;;;;;;;;;;;;;4969508;28;19914;-87
2023/09/05 05:09:32;;;;;;;;;;;;;;;;;;4968941;28;20028;-88
2023/09/05 05:11:59;;;;;;;;;;;;;;;;;;4971427;28;20384;-87
2023/09/05 05:14:25;;;;;;;;;;;;;;;;;;4987576;28;20306;-87
2023/09/05 05:16:51;;;;;;;;;;;;;;;;;;4977573;28;21174;-93
2023/09/05 05:19:17;;;;;;;;;;;;;;;;;;4974140;28;19918;-92
2023/09/05 05:21:43;;;;;;;;;;;;;;;;;;4978306;28;19910;-94
2023/09/05 05:24:08;;;;;;;;;;;;;;;;;;4978973;28;20336;-94
2023/09/05 05:26:34;;;;;;;;;;;;;;;;;;4975022;28;19983;-93
2023/09/05 05:29:01;;;;;;;;;;;;;;;;;;4970972;28;19914;-94
2023/09/05 05:31:27;;;;;;;;;;;;;;;;;;4977579;28;19918;-93
2023/09/05 05:33:53;;;;;;;;;;;;;;;;;;4976899;28;20362;-93
2023/09/05 05:36:19;;;;;;;;;;;;;;;;;;4994829;28;19918;-93
2023/09/05 05:38:51;;;;;;;;;;;;;;;;;;4975240;28;20237;-92
2023/09/05 05:41:17;;;;;;;;;;;;;;;;;;4981421;28;19925;-94
2023/09/05 05:43:43;;;;;;;;;;;;;;;;;;4975433;28;19921;-94
2023/09/05 05:46:09;;;;;;;;;;;;;;;;;;4987811;28;19929;-93
2023/09/05 05:48:35;;;;;;;;;;;;;;;;;;4970768;28;19922;-93
2023/09/05 05:51:01;;;;;;;;;;;;;;;;;;4977757;28;19944;-93
2023/09/05 05:53:27;;;;;;;;;;;;;;;;;;4975875;28;20422;-93
2023/09/05 05:55:53;;;;;;;;;;;;;;;;;;4971068;28;19914;-93
2023/09/05 05:58:19;;;;;;;;;;;;;;;;;;4972808;28;19938;-93
2023/09/05 06:00:51;;;;;;;;;;;;;;;;;;4980136;28;19922;-94
2023/09/05 06:03:17;;;;;;;;;;;;;;;;;;4974586;28;19917;-93
2023/09/05 06:05:43;;;;;;;;;;;;;;;;;;4980773;28;19921;-93
2023/09/05 06:08:09;;;;;;;;;;;;;;;;;;4983797;28;19933;-92
2023/09/05 06:10:35;;;;;;;;;;;;;;;;;;4976212;28;19914;-94
2023/09/05 06:13:01;;;;;;;;;;;;;;;;;;4982031;28;20288;-93
2023/09/05 06:15:26;;;;;;;;;;;;;;;;;;4975690;28;19918;-91
2023/09/05 06:17:52;;;;;;;;;;;;;;;;;;4975565;28;19921;-93
2023/09/05 06:20:19;;;;;;;;;;;;;;;;;;4975238;28;19965;-92
2023/09/05 06:22:47;;;;;;;;;;;;;;;;;;4979861;28;19964;-93
2023/09/05 06:25:12;;;;;;;;;;;;;;;;;;4974229;28;19925;-88
2023/09/05 06:27:47;;;;;;;;;;;;;;;;;;4979612;28;22169;-88
2023/09/05 06:30:13;;;;;;;;;;;;;;;;;;4973515;28;20251;-88
2023/09/05 06:32:39;;;;;;;;;;;;;;;;;;4970415;28;19921;-87
2023/09/05 06:35:09;;;;;;;;;;;;;;;;;;4969536;28;19914;-88
2023/09/05 06:37:35;;;;;;;;;;;;;;;;;;4965228;28;19949;-88
2023/09/05 06:40:00;;;;;;;;;;;;;;;;;;4957175;28;19968;-88
2023/09/05 06:42:26;;;;;;;;;;;;;;;;;;4969120;28;19922;-88
2023/09/05 06:44:52;;;;;;;;;;;;;;;;;;4967136;28;20390;-87
2023/09/05 06:47:18;;;;;;;;;;;;;;;;;;4968563;28;19918;-88
2023/09/05 06:49:44;;;;;;;;;;;;;;;;;;4974902;28;19936;-87
2023/09/05 06:52:10;;;;;;;;;;;;;;;;;;4968905;28;19989;-87
2023/09/05 06:54:36;;;;;;;;;;;;;;;;;;4967054;28;19964;-89
2023/09/05 06:57:02;;;;;;;;;;;;;;;;;;4973641;28;19968;-89
2023/09/05 06:59:28;;;;;;;;;;;;;;;;;;4967524;28;20305;-87
2023/09/05 07:01:53;;;;;;;;;;;;;;;;;;4973126;28;19937;-88
2023/09/05 07:04:19;;;;;;;;;;;;;;;;;;4969411;28;20019;-87
2023/09/05 07:06:47;;;;;;;;;;;;;;;;;;4969226;28;19918;-89
2023/09/05 07:09:14;;;;;;;;;;;;;;;;;;4979512;28;20000;-87
2023/09/05 07:11:40;;;;;;;;;;;;;;;;;;4975295;28;20064;-87
2023/09/05 07:14:07;;;;;;;;;;;;;;;;;;4971601;28;20763;-87
2023/09/05 07:16:33;;;;;;;;;;;;;;;;;;4988616;28;20296;-87
2023/09/05 07:18:59;;;;;;;;;;;;;;;;;;4973525;28;19918;-88
2023/09/05 07:21:25;;;;;;;;;;;;;;;;;;4972397;28;20151;-87
2023/09/05 07:23:51;;;;;;;;;;;;;;;;;;4960854;28;19930;-87
2023/09/05 07:26:17;;;;;;;;;;;;;;;;;;4972859;28;19969;-89
2023/09/05 07:28:46;;;;;;;;;;;;;;;;;;4969669;28;20356;-88
2023/09/05 07:31:14;;;;;;;;;;;;;;;;;;4971302;28;19918;-89
2023/09/05 07:33:40;;;;;;;;;;;;;;;;;;4967449;28;19925;-89
2023/09/05 07:36:06;;;;;;;;;;;;;;;;;;4973271;28;19918;-89
2023/09/05 07:38:32;;;;;;;;;;;;;;;;;;4971471;28;19918;-90
2023/09/05 07:40:58;;;;;;;;;;;;;;;;;;4970710;28;19968;-89
2023/09/05 07:43:24;;;;;;;;;;;;;;;;;;4975823;28;19968;-89
2023/09/05 07:45:50;;;;;;;;;;;;;;;;;;4974239;28;20020;-88
2023/09/05 07:48:15;;;;;;;;;;;;;;;;;;4969785;28;19991;-90
2023/09/05 07:50:41;;;;;;;;;;;;;;;;;;4976691;28;19918;-89
2023/09/05 07:53:08;;;;;;;;;;;;;;;;;;4989120;28;19968;-89
2023/09/05 07:55:34;;;;;;;;;;;;;;;;;;4977286;28;20032;-89
2023/09/05 07:58:00;;;;;;;;;;;;;;;;;;4975241;28;19913;-89
2023/09/05 08:00:26;;;;;;;;;;;;;;;;;;4964117;28;19918;-89
2023/09/05 08:02:56;;;;;;;;;;;;;;;;;;4974893;28;20007;-89
2023/09/05 08:05:21;;;;;;;;;;;;;;;;;;4976285;28;19925;-89
2023/09/05 08:07:48;;;;;;;;;;;;;;;;;;4985567;28;19914;-90
2023/09/05 08:10:14;;;;;;;;;;;;;;;;;;4975278;28;19924;-89
2023/09/05 08:12:40;;;;;;;;;;;;;;;;;;4978099;28;19914;-89
2023/09/05 08:15:06;;;;;;;;;;;;;;;;;;4975042;28;19925;-89
2023/09/05 08:17:44;;;;;;;;;;;;;;;;;;4970482;28;20333;-89
2023/09/05 08:20:12;;;;;;;;;;;;;;;;;;4978351;28;19940;-89
2023/09/05 08:22:38;;;;;;;;;;;;;;;;;;4979427;28;20484;-89
2023/09/05 08:25:04;;;;;;;;;;;;;;;;;;4991248;28;20009;-89
2023/09/05 08:27:30;;;;;;;;;;;;;;;;;;4972518;28;19917;-89
2023/09/05 08:29:57;;;;;;;;;;;;;;;;;;4979575;28;20270;-88
2023/09/05 08:32:23;;;;;;;;;;;;;;;;;;4981509;28;19917;-89
2023/09/05 08:35:01;;;;;;;;;;;;;;;;;;4976280;28;19924;-90
2023/09/05 08:37:27;;;;;;;;;;;;;;;;;;4969578;28;19947;-88
2023/09/05 08:39:53;;;;;;;;;;;;;;;;;;4980767;28;19964;-89
2023/09/05 08:42:21;;;;;;;;;;;;;;;;;;4989794;28;20299;-89
2023/09/05 08:44:47;;;;;;;;;;;;;;;;;;4974114;28;19972;-90
2023/09/05 08:47:13;;;;;;;;;;;;;;;;;;4976029;28;19914;-90
2023/09/05 08:49:39;;;;;;;;;;;;;;;;;;4975215;28;20263;-90
2023/09/05 08:52:05;;;;;;;;;;;;;;;;;;4973121;28;20330;-90
2023/09/05 08:54:30;;;;;;;;;;;;;;;;;;4966952;28;20198;-89
2023/09/05 08:56:56;;;;;;;;;;;;;;;;;;4972745;28;20314;-89
2023/09/05 08:59:22;;;;;;;;;;;;;;;;;;4979062;28;20361;-89
2023/09/05 09:01:48;;;;;;;;;;;;;;;;;;4981345;28;19938;-89
2023/09/05 09:04:14;;;;;;;;;;;;;;;;;;4974346;28;19918;-88
2023/09/05 09:06:40;;;;;;;;;;;;;;;;;;4996006;28;20426;-89
2023/09/05 09:09:06;;;;;;;;;;;;;;;;;;4987157;28;19926;-89
2023/09/05 09:11:32;;;;;;;;;;;;;;;;;;4977688;28;19918;-89
2023/09/05 09:13:59;;;;;;;;;;;;;;;;;;4972066;28;20317;-89
2023/09/05 09:16:25;;;;;;;;;;;;;;;;;;4968276;28;19921;-90
2023/09/05 09:18:51;;;;;;;;;;;;;;;;;;4977289;28;19921;-90
2023/09/05 09:21:17;;;;;;;;;;;;;;;;;;4988563;28;20333;-89
2023/09/05 09:23:46;;;;;;;;;;;;;;;;;;4991275;28;19922;-89
2023/09/05 09:26:13;;;;;;;;;;;;;;;;;;4969058;28;19914;-89
2023/09/05 09:28:39;;;;;;;;;;;;;;;;;;4969862;28;19937;-89
2023/09/05 09:31:05;;;;;;;;;;;;;;;;;;4991826;28;20008;-91
2023/09/05 09:33:31;;;;;;;;;;;;;;;;;;4971855;28;19918;-90
2023/09/05 09:35:57;;;;;;;;;;;;;;;;;;4979098;28;19914;-90
2023/09/05 09:38:23;;;;;;;;;;;;;;;;;;4974746;28;19909;-91
2023/09/05 09:40:49;;;;;;;;;;;;;;;;;;4988440;28;19918;-91
2023/09/05 09:43:15;;;;;;;;;;;;;;;;;;4977729;28;19921;-91
2023/09/05 09:45:41;;;;;;;;;;;;;;;;;;4992103;28;19914;-95
2023/09/05 09:48:07;;;;;;;;;;;;;;;;;;4989659;28;19924;-93
2023/09/05 09:50:33;;;;;;;;;;;;;;;;;;4976489;28;19992;-95
2023/09/05 09:53:00;;;;;;;;;;;;;;;;;;4971863;28;19957;-94
2023/09/05 09:55:25;;;;;;;;;;;;;;;;;;4971572;28;19918;-89
2023/09/05 09:57:56;;;;;;;;;;;;;;;;;;4968285;28;20393;-89
2023/09/05 10:00:22;;;;;;;;;;;;;;;;;;4972432;28;19968;-89
2023/09/05 10:02:49;;;;;;;;;;;;;;;;;;4969493;28;19933;-90
2023/09/05 10:05:19;;;;;;;;;;;;;;;;;;4968406;28;19923;-90
2023/09/05 10:07:45;;;;;;;;;;;;;;;;;;4970558;28;19961;-89
2023/09/05 10:10:17;;;;;;;;;;;;;;;;;;4975901;28;20830;-89
2023/09/05 10:12:43;;;;;;;;;;;;;;;;;;4973883;28;20357;-90
2023/09/05 10:15:22;;;;;;;;;;;;;;;;;;4966407;28;19937;-90
2023/09/05 10:17:48;;;;;;;;;;;;;;;;;;4968130;28;19914;-89
2023/09/05 10:20:14;;;;;;;;;;;;;;;;;;4967985;28;19925;-89
2023/09/05 10:22:40;;;;;;;;;;;;;;;;;;4971349;28;19957;-90
2023/09/05 10:25:06;;;;;;;;;;;;;;;;;;4965304;28;19918;-90
2023/09/05 10:27:32;;;;;;;;;;;;;;;;;;4965230;28;20290;-89
2023/09/05 10:29:58;;;;;;;;;;;;;;;;;;4965184;28;19914;-89
2023/09/05 10:32:24;;;;;;;;;;;;;;;;;;4988527;28;19937;-88
2023/09/05 10:34:50;;;;;;;;;;;;;;;;;;4968224;28;20649;-88
2023/09/05 10:37:16;;;;;;;;;;;;;;;;;;4974759;28;19980;-91
2023/09/05 10:39:43;;;;;;;;;;;;;;;;;;4973845;28;19921;-88
2023/09/05 10:42:12;;;;;;;;;;;;;;;;;;4969677;28;19914;-88
2023/09/05 10:44:38;;;;;;;;;;;;;;;;;;4972706;28;19924;-88
2023/09/05 10:47:04;;;;;;;;;;;;;;;;;;4972697;28;20012;-88
2023/09/05 10:49:30;;;;;;;;;;;;;;;;;;4984249;28;19914;-90
2023/09/05 10:51:56;;;;;;;;;;;;;;;;;;4971303;28;19942;-87
2023/09/05 10:54:22;;;;;;;;;;;;;;;;;;4973243;28;19997;-88
2023/09/05 10:56:48;;;;;;;;;;;;;;;;;;4973507;28;19941;-89
2023/09/05 10:59:14;;;;;;;;;;;;;;;;;;4989608;28;20116;-89
2023/09/05 11:01:44;;;;;;;;;;;;;;;;;;4989771;28;19918;-90
2023/09/05 11:04:13;;;;;;;;;;;;;;;;;;4966231;28;19929;-89
2023/09/05 11:06:42;;;;;;;;;;;;;;;;;;4975997;28;19914;-94
2023/09/05 11:09:08;;;;;;;;;;;;;;;;;;4978135;28;19917;-94
2023/09/05 11:11:37;;;;;;;;;;;;;;;;;;4974285;28;19913;-92
2023/09/05 11:14:03;;;;;;;;;;;;;;;;;;4970200;28;19992;-92
2023/09/05 11:16:29;;;;;;;;;;;;;;;;;;4977946;28;19918;-93
2023/09/05 11:18:56;;;;;;;;;;;;;;;;;;4973386;28;19922;-93
2023/09/05 11:21:22;;;;;;;;;;;;;;;;;;4972221;28;20291;-94
2023/09/05 11:23:48;;;;;;;;;;;;;;;;;;4977703;28;19988;-94
2023/09/05 11:26:14;;;;;;;;;;;;;;;;;;4971133;28;19914;-93
2023/09/05 11:28:40;;;;;;;;;;;;;;;;;;4972737;28;19914;-93
2023/09/05 11:31:08;;;;;;;;;;;;;;;;;;4977066;28;19918;-93
2023/09/05 11:33:36;;;;;;;;;;;;;;;;;;4970158;28;19914;-92
2023/09/05 11:36:02;;;;;;;;;;;;;;;;;;4975649;28;19918;-94
2023/09/05 11:38:29;;;;;;;;;;;;;;;;;;4970570;28;19929;-94
2023/09/05 11:40:55;;;;;;;;;;;;;;;;;;4970671;28;20604;-92
2023/09/05 11:43:24;;;;;;;;;;;;;;;;;;4973942;28;20307;-92
2023/09/05 11:45:50;;;;;;;;;;;;;;;;;;4978782;28;20440;-95
2023/09/05 11:48:16;;;;;;;;;;;;;;;;;;4979158;28;20012;-93
2023/09/05 11:50:43;;;;;;;;;;;;;;;;;;4969016;28;19915;-94
2023/09/05 11:53:10;;;;;;;;;;;;;;;;;;4977769;28;20389;-95
2023/09/05 11:55:36;;;;;;;;;;;;;;;;;;4984260;28;20302;-94
2023/09/05 11:58:02;;;;;;;;;;;;;;;;;;4973386;28;19924;-94
2023/09/05 12:00:29;;;;;;;;;;;;;;;;;;4979309;28;19921;-95
2023/09/05 12:02:55;;;;;;;;;;;;;;;;;;4976635;28;19918;-91
2023/09/05 12:05:21;;;;;;;;;;;;;;;;;;4979381;28;19913;-88
2023/09/05 12:07:47;;;;;;;;;;;;;;;;;;4973076;28;19913;-88
2023/09/05 12:10:13;;;;;;;;;;;;;;;;;;4972143;28;19922;-89
2023/09/05 12:12:39;;;;;;;;;;;;;;;;;;4986633;28;20380;-90
2023/09/05 12:15:05;;;;;;;;;;;;;;;;;;4972815;28;19914;-89
2023/09/05 12:17:31;;;;;;;;;;;;;;;;;;4990713;28;19924;-91
2023/09/05 12:19:57;;;;;;;;;;;;;;;;;;4972707;28;19918;-91
2023/09/05 12:22:23;;;;;;;;;;;;;;;;;;4978145;28;19917;-90
2023/09/05 12:24:49;;;;;;;;;;;;;;;;;;4999084;28;19921;-90
2023/09/05 12:27:15;;;;;;;;;;;;;;;;;;4973271;28;20424;-90
2023/09/05 12:29:41;;;;;;;;;;;;;;;;;;4968917;28;19922;-90
2023/09/05 12:32:07;;;;;;;;;;;;;;;;;;4968034;28;19914;-90
2023/09/05 12:34:33;;;;;;;;;;;;;;;;;;4978696;28;19914;-91
2023/09/05 12:36:59;;;;;;;;;;;;;;;;;;4980073;28;19917;-90
2023/09/05 12:39:25;;;;;;;;;;;;;;;;;;4968112;28;19917;-90
2023/09/05 12:41:51;;;;;;;;;;;;;;;;;;4973675;28;19918;-90
2023/09/05 12:44:17;;;;;;;;;;;;;;;;;;4982849;28;19969;-90
2023/09/05 12:46:43;;;;;;;;;;;;;;;;;;4990212;28;20278;-90
2023/09/05 12:49:10;;;;;;;;;;;;;;;;;;4999677;28;20384;-90
2023/09/05 12:51:40;;;;;;;;;;;;;;;;;;4979800;28;19924;-91
2023/09/05 12:54:06;;;;;;;;;;;;;;;;;;4981337;28;20426;-89
2023/09/05 12:56:33;;;;;;;;;;;;;;;;;;4974462;28;19969;-89
2023/09/05 12:59:08;;;;;;;;;;;;;;;;;;4974683;28;20182;-91
2023/09/05 13:01:34;;;;;;;;;;;;;;;;;;4979505;28;19914;-91
2023/09/05 13:04:02;;;;;;;;;;;;;;;;;;4982838;28;19940;-90
2023/09/05 13:06:30;;;;;;;;;;;;;;;;;;4979464;28;20396;-89
2023/09/05 13:08:57;;;;;;;;;;;;;;;;;;4977028;28;20587;-89
2023/09/05 13:11:26;;;;;;;;;;;;;;;;;;4983359;28;20101;-90
2023/09/05 13:13:52;;;;;;;;;;;;;;;;;;4979370;28;19961;-89
2023/09/05 13:16:18;;;;;;;;;;;;;;;;;;4982496;28;19917;-89
2023/09/05 13:18:53;;;;;;;;;;;;;;;;;;4977983;28;19918;-89
2023/09/05 13:21:19;;;;;;;;;;;;;;;;;;4974711;28;20012;-90
2023/09/05 13:23:45;;;;;;;;;;;;;;;;;;4982585;28;19991;-88
2023/09/05 13:26:11;;;;;;;;;;;;;;;;;;4976854;28;19960;-88
2023/09/05 13:28:36;;;;;;;;;;;;;;;;;;4973522;28;20337;-90
2023/09/05 13:31:02;;;;;;;;;;;;;;;;;;4972816;28;21459;-89
2023/09/05 13:33:29;;;;;;;;;;;;;;;;;;4972614;28;19914;-90
2023/09/05 13:35:55;;;;;;;;;;;;;;;;;;4976701;28;20350;-90
2023/09/05 13:38:21;;;;;;;;;;;;;;;;;;4976482;28;19914;-90
2023/09/05 13:40:47;;;;;;;;;;;;;;;;;;4975919;28;19918;-90
2023/09/05 13:43:13;;;;;;;;;;;;;;;;;;4972607;28;19922;-90
2023/09/05 13:45:39;;;;;;;;;;;;;;;;;;4975120;28;19921;-90
2023/09/05 13:48:05;;;;;;;;;;;;;;;;;;4970444;28;19918;-90
2023/09/05 13:50:31;;;;;;;;;;;;;;;;;;4970134;28;20293;-90
2023/09/05 13:52:57;;;;;;;;;;;;;;;;;;4974985;28;19918;-90
2023/09/05 13:55:23;;;;;;;;;;;;;;;;;;4975022;28;19924;-89
2023/09/05 13:57:50;;;;;;;;;;;;;;;;;;4968979;28;19918;-90
2023/09/05 14:00:18;;;;;;;;;;;;;;;;;;4977887;28;19929;-91
2023/09/05 14:02:44;;;;;;;;;;;;;;;;;;4982456;28;19918;-90
2023/09/05 14:05:10;;;;;;;;;;;;;;;;;;4975595;28;20416;-90
2023/09/05 14:07:40;;;;;;;;;;;;;;;;;;4972610;28;19972;-90
2023/09/05 14:10:06;;;;;;;;;;;;;;;;;;4978582;28;20317;-90
2023/09/05 14:12:32;;;;;;;;;;;;;;;;;;4979853;28;19917;-91
2023/09/05 14:14:58;;;;;;;;;;;;;;;;;;4990888;28;19920;-91
2023/09/05 14:17:24;;;;;;;;;;;;;;;;;;4979203;28;19918;-90
2023/09/05 14:19:51;;;;;;;;;;;;;;;;;;4976485;28;19928;-89
2023/09/05 14:22:17;;;;;;;;;;;;;;;;;;4974606;28;19994;-90
2023/09/05 14:24:44;;;;;;;;;;;;;;;;;;4976481;28;20017;-90
2023/09/05 14:27:10;;;;;;;;;;;;;;;;;;4997741;28;19929;-91
2023/09/05 14:29:37;;;;;;;;;;;;;;;;;;4992061;28;20010;-91
2023/09/05 14:32:03;;;;;;;;;;;;;;;;;;4993928;28;19945;-91
2023/09/05 14:34:28;;;;;;;;;;;;;;;;;;4995341;28;19917;-92
2023/09/05 14:36:54;;;;;;;;;;;;;;;;;;4981404;28;20353;-87
2023/09/05 14:39:20;;;;;;;;;;;;;;;;;;4970950;28;19920;-88
2023/09/05 14:41:46;;;;;;;;;;;;;;;;;;4979994;28;19918;-89
2023/09/05 14:44:12;;;;;;;;;;;;;;;;;;4976474;28;19914;-88
2023/09/05 14:46:38;;;;;;;;;;;;;;;;;;4963326;28;20156;-89
2023/09/05 14:49:05;;;;;;;;;;;;;;;;;;4978622;28;19918;-89
2023/09/05 14:51:31;;;;;;;;;;;;;;;;;;4978938;28;20004;-88
2023/09/05 14:53:57;;;;;;;;;;;;;;;;;;4978351;28;20008;-87
2023/09/05 14:56:23;;;;;;;;;;;;;;;;;;4975704;28;19961;-88
2023/09/05 14:58:49;;;;;;;;;;;;;;;;;;4978213;28;19937;-87
2023/09/05 15:01:15;;;;;;;;;;;;;;;;;;4979709;28;19956;-89
2023/09/05 15:03:40;;;;;;;;;;;;;;;;;;4969552;28;19954;-86
2023/09/05 15:06:07;;;;;;;;;;;;;;;;;;4976703;28;19953;-88
2023/09/05 15:08:34;;;;;;;;;;;;;;;;;;4976052;28;20381;-88
2023/09/05 15:10:59;;;;;;;;;;;;;;;;;;4981892;28;19968;-88
2023/09/05 15:13:26;;;;;;;;;;;;;;;;;;4980505;28;19918;-88
2023/09/05 15:15:52;;;;;;;;;;;;;;;;;;4975152;28;19922;-90
2023/09/05 15:18:18;;;;;;;;;;;;;;;;;;4980662;28;20028;-89
2023/09/05 15:20:44;;;;;;;;;;;;;;;;;;4988132;28;19928;-89
2023/09/05 15:23:10;;;;;;;;;;;;;;;;;;4983643;28;19918;-87
2023/09/05 15:25:36;;;;;;;;;;;;;;;;;;4988406;28;19918;-89
2023/09/05 15:28:02;;;;;;;;;;;;;;;;;;4994035;28;19924;-92
2023/09/05 15:30:28;;;;;;;;;;;;;;;;;;4997636;28;20053;-88
2023/09/05 15:32:54;;;;;;;;;;;;;;;;;;4987931;28;19914;-88
2023/09/05 15:35:20;;;;;;;;;;;;;;;;;;4986738;28;19916;-93
2023/09/05 15:37:46;;;;;;;;;;;;;;;;;;4992286;28;19897;-91
2023/09/05 15:40:12;;;;;;;;;;;;;;;;;;4997174;28;19913;-91
2023/09/05 15:42:39;;;;;;;;;;;;;;;;;;4998791;28;19971;-92
2023/09/05 15:45:08;;;;;;;;;;;;;;;;;;4996822;28;19914;-89
2023/09/05 15:47:35;;;;;;;;;;;;;;;;;;4990594;28;19925;-88
2023/09/05 15:50:01;;;;;;;;;;;;;;;;;;4981416;28;19925;-88
2023/09/05 15:52:27;;;;;;;;;;;;;;;;;;4973774;28;20293;-90
2023/09/05 15:54:53;;;;;;;;;;;;;;;;;;4971783;28;19914;-88
2023/09/05 15:57:19;;;;;;;;;;;;;;;;;;4979371;28;19914;-87
2023/09/05 15:59:45;;;;;;;;;;;;;;;;;;4975308;28;20288;-88
2023/09/05 16:02:17;;;;;;;;;;;;;;;;;;4977630;28;19918;-87
2023/09/05 16:04:43;;;;;;;;;;;;;;;;;;4979530;28;20409;-88
2023/09/05 16:07:09;;;;;;;;;;;;;;;;;;4974355;28;19920;-86
2023/09/05 16:09:35;;;;;;;;;;;;;;;;;;4973746;28;19914;-86
2023/09/05 16:12:01;;;;;;;;;;;;;;;;;;4994365;28;19937;-87
2023/09/05 16:14:26;;;;;;;;;;;;;;;;;;4976632;28;19918;-88
2023/09/05 16:16:53;;;;;;;;;;;;;;;;;;4983172;28;20448;-88
2023/09/05 16:19:19;;;;;;;;;;;;;;;;;;4980675;28;19921;-88
2023/09/05 16:21:45;;;;;;;;;;;;;;;;;;4976923;28;19918;-89
2023/09/05 16:24:11;;;;;;;;;;;;;;;;;;4977675;28;19925;-87
2023/09/05 16:26:37;;;;;;;;;;;;;;;;;;4974853;28;19925;-90
2023/09/05 16:29:03;;;;;;;;;;;;;;;;;;4989330;28;19914;-90
2023/09/05 16:31:29;;;;;;;;;;;;;;;;;;4973765;28;19972;-89
2023/09/05 16:33:55;;;;;;;;;;;;;;;;;;4976916;28;19961;-89
2023/09/05 16:36:22;;;;;;;;;;;;;;;;;;4976657;28;19913;-89
2023/09/05 16:38:49;;;;;;;;;;;;;;;;;;4978920;28;20107;-90
2023/09/05 16:41:15;;;;;;;;;;;;;;;;;;5001152;28;19914;-87